METAR Data
IDs: Format: Raw Decoded Include TAF

Data at: 0333 UTC 06 Dec 2019

METAR for:KCAV (Clarion Muni, IA, US)
Text:KCAV 060315Z AUTO 34016G22KT 10SM FEW018 FEW025 M00/M01 A3005 RMK A01
Temperature: 0.0°C ( 32°F)
Dewpoint: -1.0°C ( 30°F) [RH = 93%]
Pressure (altimeter):30.05 inches Hg (1017.7 mb)
Winds:from the NNW (340 degrees) at 18 MPH (16 knots; 8.2 m/s) gusting to 25 MPH (22 knots; 11.3 m/s)
Visibility:10 or more sm (16+ km)
Ceiling:at least 12,000 feet AGL
Clouds: few clouds at 1800 feet AGL, few clouds at 2500 feet AGL
QC Flag:automated observation with no human augmentation